KMHV/MHV METAR and TAF weather

Enter ICAO airport designator
Station Type Date Time Source
KMHV METAR 2020/03/29 21:40 UTC NOAA

KMHV 292140Z AUTO 27021G28KT 10SM CLR 13/02 A3004 RMK A01


Station Type Date Time Source
KMHV Decoded METAR 2020/03/29 21:40 UTC NOAA

Mojave, CA, United States (KMHV) 35-04N 118-09W
Mar 29, 2020 - 05:40 PM EDT / 2020.03.29 2140 UTC
Wind: from the W (270 degrees) at 24 MPH (21 KT) gusting to 32 MPH (28 KT):0
Visibility: 10 mile(s):0
Sky conditions: clear
Temperature: 55 F (13 C)
Dew Point: 35 F (2 C)
Relative Humidity: 47%
Pressure (altimeter): 30.04 in. Hg (1017 hPa)
ob: KMHV 292140Z AUTO 27021G28KT 10SM CLR 13/02 A3004 RMK A01
cycle: 21

Station Type Date Time Source
KMHV TAF UTC NOAA

Error!

Example: see airport list